Big Torch Key, Florida
Current Conditions -  °F | °C
As of 10:53 AM on Friday 24 Oct 2014 (Local Time) from KNQX Reporting Station
Overcast Overcast  
Wind Chill: 77°   Ceiling: 4000
Heat Index: 78°   Visibility: 10mi
Dew Point: 72°   Wind: 16mph
Humidity: 84%   Direction: 40°NE
Pressure: 29.87"   Gusts: 25mph
Location:  24.6465°N, 81.5399°W
Report Text: KNQX 241453Z 04014G22KT 10SM SCT012 BKN040 OVC070 25/22 A2987 RMK AO2 SLP113 T02500222 53015 $
Loading
Personal Weather Stations






























Interactive Weather Map
Tropical Storm Tracking
New forecast layout! Learn more

10-Day Weather Forecast

Advertisements
Track Severe Weather on mobile